Time;durP1;ratioP1;P1;durP2;ratioP2;P2;SDS_P1;SDS_P2;PMS_P1;PMS_P2;Temp;Humidity;BMP_temperature;BMP_pressure;BME280_temperature;BME280_humidity;BME280_pressure;Samples;Min_cycle;Max_cycle;Signal;HPM_P1;HPM_P2
2021/08/08 00:00:09;;;;;;;1.37;1.27;;;18.40;99.90;;;;;;4994494;28;21285;-70
2021/08/08 00:02:38;;;;;;;1.40;1.20;;;18.40;99.90;;;;;;4992438;28;20543;-71
2021/08/08 00:05:06;;;;;;;3.00;1.17;;;18.40;99.90;;;;;;4989316;28;20455;-70
2021/08/08 00:07:33;;;;;;;1.20;1.10;;;18.20;99.90;;;;;;4990754;28;20537;-71
2021/08/08 00:10:00;;;;;;;2.50;1.03;;;18.20;99.90;;;;;;5000992;28;20492;-70
2021/08/08 00:12:27;;;;;;;3.80;1.77;;;18.30;99.90;;;;;;4995348;28;20588;-71
2021/08/08 00:14:54;;;;;;;1.40;1.10;;;18.30;99.90;;;;;;4991372;28;20616;-70
2021/08/08 00:17:21;;;;;;;1.67;1.13;;;18.30;99.90;;;;;;4991341;28;20560;-71
2021/08/08 00:19:50;;;;;;;7.53;1.37;;;18.20;99.90;;;;;;4994986;28;20458;-70
2021/08/08 00:22:17;;;;;;;1.30;0.93;;;18.30;99.90;;;;;;4998694;28;20533;-72
2021/08/08 00:24:44;;;;;;;1.37;0.80;;;18.30;99.90;;;;;;4990988;28;20970;-71
2021/08/08 00:27:11;;;;;;;1.30;1.00;;;18.30;99.90;;;;;;4990997;28;20512;-70
2021/08/08 00:29:38;;;;;;;1.80;1.20;;;18.20;99.90;;;;;;4993131;28;20485;-70
2021/08/08 00:32:05;;;;;;;2.73;0.90;;;18.10;99.90;;;;;;4993031;28;20536;-70
2021/08/08 00:34:32;;;;;;;1.30;1.10;;;18.10;99.90;;;;;;4993843;28;20906;-70
2021/08/08 00:37:01;;;;;;;2.77;1.43;;;18.00;99.90;;;;;;4998928;28;20558;-70
2021/08/08 00:39:28;;;;;;;1.60;1.47;;;17.90;99.90;;;;;;4999050;28;20563;-70
2021/08/08 00:41:55;;;;;;;2.23;1.20;;;17.90;99.90;;;;;;5003323;28;20988;-70
2021/08/08 00:44:22;;;;;;;1.47;1.20;;;17.80;99.90;;;;;;4999275;28;20573;-70
2021/08/08 00:46:49;;;;;;;1.40;1.10;;;17.80;99.90;;;;;;4994422;28;20536;-70
2021/08/08 00:49:16;;;;;;;1.47;1.07;;;17.80;99.90;;;;;;5003107;28;20504;-72
2021/08/08 00:51:43;;;;;;;3.27;1.57;;;17.90;99.90;;;;;;4995840;28;20553;-72
2021/08/08 00:54:11;;;;;;;3.20;1.47;;;17.90;99.90;;;;;;4994152;28;20450;-71
2021/08/08 00:56:38;;;;;;;2.20;1.70;;;17.90;99.90;;;;;;4994277;28;20488;-70
2021/08/08 00:59:05;;;;;;;1.33;1.23;;;17.90;99.90;;;;;;4984030;28;20473;-71
2021/08/08 01:01:39;;;;;;;1.60;1.10;;;17.90;99.90;;;;;;4988300;28;20903;-70
2021/08/08 01:04:08;;;;;;;1.40;1.03;;;17.90;99.90;;;;;;4992549;28;20769;-71
2021/08/08 01:06:42;;;;;;;1.40;1.10;;;17.90;99.90;;;;;;4995453;28;20583;-72
2021/08/08 01:09:12;;;;;;;1.30;0.90;;;18.00;99.90;;;;;;4997256;28;20558;-69
2021/08/08 01:11:40;;;;;;;4.17;1.20;;;17.90;99.90;;;;;;4995251;28;20542;-71
2021/08/08 01:14:08;;;;;;;1.77;1.67;;;17.90;99.90;;;;;;5000496;28;20476;-71
2021/08/08 01:16:37;;;;;;;1.30;1.10;;;17.90;99.90;;;;;;4998841;28;20493;-70
2021/08/08 01:19:06;;;;;;;1.50;1.40;;;17.90;99.90;;;;;;4993028;28;21049;-71
2021/08/08 01:21:34;;;;;;;2.90;1.40;;;17.90;99.90;;;;;;4991239;28;20458;-71
2021/08/08 01:24:03;;;;;;;2.47;1.70;;;17.90;99.90;;;;;;4991836;28;20583;-70
2021/08/08 01:26:32;;;;;;;1.30;1.00;;;17.80;99.90;;;;;;4989227;28;20510;-71
2021/08/08 01:29:00;;;;;;;1.70;1.20;;;17.70;99.90;;;;;;4991789;28;20893;-72
2021/08/08 01:31:27;;;;;;;3.87;1.40;;;17.80;99.90;;;;;;4999184;28;20580;-71
2021/08/08 01:33:54;;;;;;;1.60;1.43;;;17.70;99.90;;;;;;5006246;28;20919;-71
2021/08/08 01:36:21;;;;;;;2.40;1.90;;;17.70;99.90;;;;;;4998434;28;20506;-71
2021/08/08 01:38:55;;;;;;;2.17;1.27;;;17.70;99.90;;;;;;4994865;28;20450;-70
2021/08/08 01:41:27;;;;;;;1.73;1.50;;;17.70;99.90;;;;;;5002222;28;20441;-71
2021/08/08 01:43:56;;;;;;;10.20;1.50;;;17.80;99.90;;;;;;4998707;28;21208;-69
2021/08/08 01:46:25;;;;;;;2.50;1.50;;;17.70;99.90;;;;;;4995967;28;20477;-71
2021/08/08 01:48:55;;;;;;;1.97;1.30;;;17.80;99.90;;;;;;4989981;28;20794;-71
2021/08/08 01:51:23;;;;;;;4.40;1.67;;;17.80;99.90;;;;;;5001984;28;20515;-71
2021/08/08 01:53:51;;;;;;;1.27;1.03;;;17.90;99.90;;;;;;5001147;28;20450;-71
2021/08/08 01:56:18;;;;;;;1.40;1.10;;;17.80;99.90;;;;;;4996537;28;20907;-72
2021/08/08 01:58:46;;;;;;;6.43;1.47;;;17.80;99.90;;;;;;4990936;28;20973;-70
2021/08/08 02:01:14;;;;;;;2.10;1.60;;;17.80;99.90;;;;;;5001100;28;21218;-71
2021/08/08 02:03:42;;;;;;;1.57;1.20;;;17.80;99.90;;;;;;5000919;28;20513;-71
2021/08/08 02:06:11;;;;;;;1.53;1.27;;;17.80;99.90;;;;;;4993249;28;20564;-72
2021/08/08 02:08:38;;;;;;;1.83;1.73;;;17.80;99.90;;;;;;5003944;28;22209;-72
2021/08/08 02:11:05;;;;;;;3.60;1.67;;;17.80;99.90;;;;;;4995686;28;20898;-71
2021/08/08 02:13:33;;;;;;;3.60;1.97;;;17.80;99.90;;;;;;5002965;28;20938;-70
2021/08/08 02:16:01;;;;;;;1.63;1.30;;;17.90;99.90;;;;;;5007220;28;20556;-71
2021/08/08 02:18:28;;;;;;;3.07;2.13;;;17.90;99.90;;;;;;4991406;28;20454;-70
2021/08/08 02:20:55;;;;;;;1.97;1.77;;;17.80;99.90;;;;;;5003248;28;20472;-71
2021/08/08 02:23:22;;;;;;;3.67;1.47;;;17.80;99.90;;;;;;4997734;28;20901;-72
2021/08/08 02:25:51;;;;;;;4.37;3.80;;;17.90;99.90;;;;;;4999726;28;20607;-72
2021/08/08 02:28:18;;;;;;;2.03;1.57;;;17.90;99.90;;;;;;4990005;28;20465;-71
2021/08/08 02:30:45;;;;;;;2.13;1.50;;;17.90;99.90;;;;;;4991224;28;20658;-71
2021/08/08 02:33:14;;;;;;;3.60;2.00;;;17.90;99.90;;;;;;4996793;28;20481;-71
2021/08/08 02:35:41;;;;;;;2.93;1.77;;;17.90;99.90;;;;;;4996296;28;20508;-72
2021/08/08 02:38:08;;;;;;;2.50;1.43;;;17.90;99.90;;;;;;4993708;28;20545;-72
2021/08/08 02:40:35;;;;;;;3.50;1.67;;;17.80;99.90;;;;;;5007962;28;20878;-71
2021/08/08 02:43:02;;;;;;;2.40;1.50;;;17.70;99.90;;;;;;4997773;28;20445;-72
2021/08/08 02:45:28;;;;;;;2.83;1.83;;;17.70;99.90;;;;;;5007744;28;20512;-70
2021/08/08 02:47:56;;;;;;;2.93;2.27;;;17.70;99.90;;;;;;5001038;28;20482;-72
2021/08/08 02:50:24;;;;;;;3.90;1.70;;;17.70;99.90;;;;;;4999456;28;20636;-71
2021/08/08 02:52:53;;;;;;;2.30;2.03;;;17.70;99.90;;;;;;5008127;28;20527;-71
2021/08/08 02:55:21;;;;;;;7.00;2.40;;;17.70;99.90;;;;;;5011511;28;20448;-71
2021/08/08 02:57:48;;;;;;;8.30;1.50;;;17.80;99.90;;;;;;4999598;28;20911;-71
2021/08/08 03:00:15;;;;;;;3.83;2.13;;;17.90;99.90;;;;;;4997401;28;20463;-70
2021/08/08 03:02:42;;;;;;;2.63;1.97;;;17.80;99.90;;;;;;4999713;28;20477;-71
2021/08/08 03:05:10;;;;;;;2.67;1.90;;;17.80;99.90;;;;;;4993605;28;20489;-71
2021/08/08 03:07:39;;;;;;;3.40;1.30;;;17.70;99.90;;;;;;4997977;28;20473;-72
2021/08/08 03:10:07;;;;;;;2.03;1.40;;;17.70;99.90;;;;;;5001693;28;20497;-71
2021/08/08 03:12:34;;;;;;;1.93;1.50;;;17.70;99.90;;;;;;4997719;28;20485;-71
2021/08/08 03:15:01;;;;;;;3.50;1.90;;;17.70;99.90;;;;;;4989023;28;20637;-70
2021/08/08 03:17:28;;;;;;;3.80;1.97;;;17.70;99.90;;;;;;4993790;28;20555;-71
2021/08/08 03:19:55;;;;;;;1.53;1.30;;;17.80;99.90;;;;;;4991580;28;20549;-72
2021/08/08 03:22:22;;;;;;;2.53;2.07;;;17.80;99.90;;;;;;5001229;28;20465;-71
2021/08/08 03:24:50;;;;;;;3.03;1.83;;;17.60;99.90;;;;;;4998795;28;20513;-70
2021/08/08 03:27:17;;;;;;;4.03;2.00;;;17.70;99.90;;;;;;4993736;28;20478;-72
2021/08/08 03:29:44;;;;;;;7.27;2.23;;;17.70;99.90;;;;;;4998340;28;20461;-71
2021/08/08 03:32:11;;;;;;;4.23;1.70;;;17.70;99.90;;;;;;4997502;28;20525;-71
2021/08/08 03:34:39;;;;;;;1.40;1.30;;;17.60;99.90;;;;;;4996003;28;20556;-71
2021/08/08 03:37:06;;;;;;;4.00;2.00;;;17.60;99.90;;;;;;4999816;28;21080;-72
2021/08/08 03:39:33;;;;;;;1.67;1.30;;;17.70;99.90;;;;;;4997667;28;20493;-71
2021/08/08 03:42:01;;;;;;;4.23;1.80;;;17.60;99.90;;;;;;4996439;28;20995;-72
2021/08/08 03:44:29;;;;;;;2.03;1.83;;;17.60;99.90;;;;;;4993876;28;20886;-72
2021/08/08 03:46:56;;;;;;;2.53;2.27;;;17.70;99.90;;;;;;5001593;28;20607;-72
2021/08/08 03:49:23;;;;;;;3.77;1.77;;;17.60;99.90;;;;;;4996662;28;21155;-72
2021/08/08 03:51:49;;;;;;;1.30;1.20;;;17.60;99.90;;;;;;4993428;28;20556;-72
2021/08/08 03:54:17;;;;;;;4.53;1.60;;;17.60;99.90;;;;;;4997379;28;20478;-72
2021/08/08 03:56:43;;;;;;;2.20;1.67;;;17.60;99.90;;;;;;4997527;28;20781;-71
2021/08/08 03:59:12;;;;;;;1.93;1.63;;;17.60;99.90;;;;;;4995058;28;20504;-71
2021/08/08 04:01:39;;;;;;;1.37;1.23;;;17.60;99.90;;;;;;5001741;28;20456;-72
2021/08/08 04:04:06;;;;;;;4.90;2.00;;;17.70;99.90;;;;;;4996075;28;20571;-71
2021/08/08 04:06:33;;;;;;;2.57;1.70;;;17.70;99.90;;;;;;4999478;28;21012;-70
2021/08/08 04:09:00;;;;;;;5.63;2.50;;;17.60;99.90;;;;;;4988088;28;20504;-72
2021/08/08 04:11:27;;;;;;;2.07;1.73;;;17.50;99.90;;;;;;4991050;28;20453;-70
2021/08/08 04:13:54;;;;;;;9.73;2.30;;;17.40;99.90;;;;;;4999276;28;20449;-71
2021/08/08 04:16:22;;;;;;;3.50;2.50;;;17.40;99.90;;;;;;4993668;28;20584;-69
2021/08/08 04:18:49;;;;;;;2.10;1.90;;;17.50;99.90;;;;;;4990953;28;20458;-71
2021/08/08 04:21:16;;;;;;;3.40;1.90;;;17.40;99.90;;;;;;4998085;28;20540;-71
2021/08/08 04:23:45;;;;;;;10.57;2.60;;;17.40;99.90;;;;;;4994992;28;21191;-71
2021/08/08 04:26:11;;;;;;;6.40;2.00;;;17.40;99.90;;;;;;4990609;28;20482;-70
2021/08/08 04:28:40;;;;;;;6.30;2.13;;;17.40;99.90;;;;;;4982670;28;20458;-70
2021/08/08 04:31:07;;;;;;;3.83;2.40;;;17.50;99.90;;;;;;4993826;28;20934;-71
2021/08/08 04:33:37;;;;;;;3.70;2.10;;;17.40;99.90;;;;;;4999893;28;20557;-71
2021/08/08 04:36:04;;;;;;;4.53;2.83;;;17.40;99.90;;;;;;4995497;28;20593;-70
2021/08/08 04:38:32;;;;;;;2.20;1.93;;;17.50;99.90;;;;;;4986521;28;20531;-71
2021/08/08 04:40:59;;;;;;;1.80;1.70;;;17.50;99.90;;;;;;4995625;28;20544;-70
2021/08/08 04:43:26;;;;;;;7.73;2.10;;;17.30;99.90;;;;;;4987684;28;20483;-70
2021/08/08 04:45:53;;;;;;;5.10;3.13;;;17.30;99.90;;;;;;4995304;28;20581;-70
2021/08/08 04:48:20;;;;;;;7.57;3.83;;;17.30;99.90;;;;;;4994901;28;20469;-70
2021/08/08 04:50:49;;;;;;;2.17;1.97;;;17.40;99.90;;;;;;4994514;28;20568;-70
2021/08/08 04:53:17;;;;;;;3.50;2.47;;;17.40;99.90;;;;;;4994457;28;20536;-70
2021/08/08 04:55:44;;;;;;;2.87;2.10;;;17.40;99.90;;;;;;4990780;28;20485;-70
2021/08/08 04:58:11;;;;;;;4.27;2.20;;;17.40;99.90;;;;;;4990810;28;20518;-70
2021/08/08 05:00:38;;;;;;;5.80;2.50;;;17.40;99.90;;;;;;4992610;28;20461;-70
2021/08/08 05:03:06;;;;;;;3.27;1.60;;;17.30;99.90;;;;;;5005396;28;20499;-71
2021/08/08 05:05:33;;;;;;;6.10;2.60;;;17.30;99.90;;;;;;4993109;28;20509;-70
2021/08/08 05:08:01;;;;;;;3.60;1.83;;;17.30;99.90;;;;;;4997287;28;20523;-70
2021/08/08 05:10:28;;;;;;;3.37;1.77;;;17.40;99.90;;;;;;4993075;28;21792;-71
2021/08/08 05:12:56;;;;;;;3.10;1.70;;;17.40;99.90;;;;;;4995448;28;20572;-70
2021/08/08 05:15:24;;;;;;;3.80;2.40;;;17.40;99.90;;;;;;5000586;28;20496;-71
2021/08/08 05:17:52;;;;;;;1.80;1.70;;;17.40;99.90;;;;;;5001257;28;20453;-72
2021/08/08 05:20:19;;;;;;;3.13;2.23;;;17.40;99.90;;;;;;4994297;28;20539;-70
2021/08/08 05:22:46;;;;;;;12.43;1.93;;;17.50;99.90;;;;;;5002520;28;20499;-71
2021/08/08 05:25:14;;;;;;;6.57;2.27;;;17.40;99.90;;;;;;4995504;28;20488;-71
2021/08/08 05:27:42;;;;;;;6.07;2.13;;;17.50;99.90;;;;;;4994691;28;20568;-71
2021/08/08 05:30:10;;;;;;;2.90;2.00;;;17.60;99.90;;;;;;4998026;28;20556;-71
2021/08/08 05:32:37;;;;;;;3.23;1.77;;;17.60;99.90;;;;;;4994582;28;20481;-72
2021/08/08 05:35:05;;;;;;;2.07;1.40;;;17.50;99.90;;;;;;5001573;28;20443;-71
2021/08/08 05:37:32;;;;;;;4.93;2.00;;;17.50;99.90;;;;;;4990344;28;20477;-71
2021/08/08 05:40:04;;;;;;;4.33;2.20;;;17.50;99.90;;;;;;4992298;28;20542;-71
2021/08/08 05:42:33;;;;;;;3.00;1.70;;;17.50;99.90;;;;;;4997758;28;20477;-71
2021/08/08 05:45:00;;;;;;;2.33;1.67;;;17.50;99.90;;;;;;5001184;28;20859;-71
2021/08/08 05:47:27;;;;;;;9.37;3.00;;;17.50;99.90;;;;;;4997932;28;20547;-71
2021/08/08 05:49:54;;;;;;;4.47;2.20;;;17.50;99.90;;;;;;4996181;28;20458;-71
2021/08/08 05:52:22;;;;;;;3.90;1.43;;;17.50;99.90;;;;;;5000099;28;20561;-71
2021/08/08 05:54:49;;;;;;;2.07;1.67;;;17.40;99.90;;;;;;4997719;28;20446;-70
2021/08/08 05:57:16;;;;;;;5.67;2.73;;;17.40;99.90;;;;;;4995692;28;20579;-71
2021/08/08 05:59:44;;;;;;;2.67;2.13;;;17.40;99.90;;;;;;5007137;28;20964;-71
2021/08/08 06:02:11;;;;;;;2.20;1.47;;;17.50;99.90;;;;;;4997814;28;20541;-70
2021/08/08 06:04:38;;;;;;;9.40;2.00;;;17.50;99.90;;;;;;4998645;28;20478;-70
2021/08/08 06:07:05;;;;;;;17.33;3.00;;;17.40;99.90;;;;;;4988797;28;20576;-69
2021/08/08 06:09:32;;;;;;;5.23;1.67;;;17.30;99.90;;;;;;4991611;28;20549;-70
2021/08/08 06:11:59;;;;;;;8.30;1.90;;;17.20;99.90;;;;;;4995946;28;20974;-71
2021/08/08 06:14:29;;;;;;;3.70;1.50;;;17.30;99.90;;;;;;4997885;28;20595;-70
2021/08/08 06:16:57;;;;;;;2.50;1.60;;;17.40;99.90;;;;;;5002300;28;20473;-69
2021/08/08 06:19:24;;;;;;;3.63;1.57;;;17.30;99.90;;;;;;5002874;28;20900;-69
2021/08/08 06:21:51;;;;;;;16.07;4.80;;;17.30;99.90;;;;;;4991608;28;20480;-71
2021/08/08 06:24:18;;;;;;;2.43;1.70;;;17.30;99.90;;;;;;4998440;28;20543;-71
2021/08/08 06:26:46;;;;;;;4.40;2.17;;;17.30;99.90;;;;;;4998305;28;20580;-71
2021/08/08 06:29:13;;;;;;;5.37;1.67;;;17.40;99.90;;;;;;4989748;28;20552;-70
2021/08/08 06:31:40;;;;;;;5.87;1.70;;;17.30;99.90;;;;;;4999342;28;20986;-70
2021/08/08 06:34:08;;;;;;;13.93;2.30;;;17.40;99.90;;;;;;4999015;28;20465;-70
2021/08/08 06:36:36;;;;;;;7.73;2.20;;;17.40;99.90;;;;;;4996381;28;20571;-70
2021/08/08 06:39:05;;;;;;;2.87;2.27;;;17.40;99.90;;;;;;4994565;28;20854;-71
2021/08/08 06:41:33;;;;;;;1.57;1.10;;;17.30;99.90;;;;;;4991576;28;20458;-70
2021/08/08 06:44:00;;;;;;;4.97;3.63;;;17.30;99.90;;;;;;4996110;28;20513;-71
2021/08/08 06:46:27;;;;;;;5.93;2.07;;;17.40;99.90;;;;;;4981083;28;20481;-70
2021/08/08 06:48:54;;;;;;;4.40;1.80;;;17.30;99.90;;;;;;4993095;28;20457;-70
2021/08/08 06:51:22;;;;;;;6.40;2.37;;;17.30;99.90;;;;;;5000779;28;20513;-71
2021/08/08 06:53:49;;;;;;;4.03;3.33;;;17.50;99.90;;;;;;4997596;28;20568;-71
2021/08/08 06:56:16;;;;;;;3.53;2.03;;;17.40;99.90;;;;;;4998600;28;20550;-71
2021/08/08 06:58:43;;;;;;;2.90;2.23;;;17.50;99.90;;;;;;4998269;28;20484;-70
2021/08/08 07:01:10;;;;;;;4.10;2.50;;;17.50;99.90;;;;;;4998349;28;20544;-71
2021/08/08 07:03:37;;;;;;;4.03;2.20;;;17.40;99.90;;;;;;5005236;28;20461;-70
2021/08/08 07:06:04;;;;;;;3.63;1.97;;;17.40;99.90;;;;;;5003355;28;20501;-71
2021/08/08 07:08:32;;;;;;;6.80;2.33;;;17.40;99.90;;;;;;4993282;28;20557;-70
2021/08/08 07:10:59;;;;;;;7.90;2.33;;;17.40;99.90;;;;;;4989862;28;20558;-70
2021/08/08 07:13:26;;;;;;;4.40;1.83;;;17.40;99.90;;;;;;4996244;28;20484;-70
2021/08/08 07:15:53;;;;;;;5.43;2.43;;;17.30;99.90;;;;;;4992775;28;20553;-71
2021/08/08 07:18:20;;;;;;;8.97;3.30;;;17.40;99.90;;;;;;4997914;28;20471;-70
2021/08/08 07:20:47;;;;;;;2.37;2.17;;;17.50;99.90;;;;;;4991522;28;20959;-71
2021/08/08 07:23:14;;;;;;;3.40;1.80;;;17.70;99.90;;;;;;4994910;28;20469;-69
2021/08/08 07:25:42;;;;;;;3.17;1.73;;;17.80;99.90;;;;;;5045081;23;20564;-69
2021/08/08 07:28:09;;;;;;;11.00;2.20;;;17.80;99.90;;;;;;4960078;28;20593;-69
2021/08/08 07:30:37;;;;;;;3.90;2.03;;;17.70;99.90;;;;;;4977236;28;21038;-71
2021/08/08 07:33:04;;;;;;;17.03;2.53;;;17.70;99.90;;;;;;4975833;28;20489;-71
2021/08/08 07:35:31;;;;;;;2.63;2.00;;;17.70;99.90;;;;;;4987916;28;20525;-70
2021/08/08 07:37:59;;;;;;;3.60;2.63;;;17.70;99.90;;;;;;4974515;28;20564;-70
2021/08/08 07:40:25;;;;;;;6.63;1.90;;;17.70;99.90;;;;;;4985001;28;20458;-71
2021/08/08 07:42:54;;;;;;;4.17;2.17;;;17.70;99.90;;;;;;4980868;28;20490;-76
2021/08/08 07:45:21;;;;;;;6.23;3.03;;;17.70;99.90;;;;;;4980195;28;21225;-77
2021/08/08 07:47:48;;;;;;;5.57;2.10;;;17.80;99.90;;;;;;4981876;28;20498;-69
2021/08/08 07:50:16;;;;;;;5.00;2.67;;;17.90;99.90;;;;;;4987217;28;20883;-74
2021/08/08 07:52:43;;;;;;;6.63;2.00;;;18.00;99.90;;;;;;4982913;28;20556;-70
2021/08/08 07:55:11;;;;;;;10.90;2.23;;;17.90;99.90;;;;;;4986579;28;20478;-67
2021/08/08 07:57:38;;;;;;;6.50;1.93;;;17.90;99.90;;;;;;4982147;28;20463;-69
2021/08/08 08:00:08;;;;;;;4.83;2.37;;;18.10;99.90;;;;;;4966702;28;20560;-72
2021/08/08 08:02:35;;;;;;;3.33;2.13;;;18.00;99.90;;;;;;4978149;28;20550;-72
2021/08/08 08:05:02;;;;;;;4.90;2.20;;;18.10;99.90;;;;;;4981999;28;20543;-72
2021/08/08 08:07:29;;;;;;;5.20;2.03;;;18.20;99.90;;;;;;4969176;28;20558;-69
2021/08/08 08:09:56;;;;;;;5.07;1.97;;;18.40;99.90;;;;;;4971067;28;20509;-69
2021/08/08 08:12:23;;;;;;;3.37;1.40;;;18.50;99.90;;;;;;4970096;28;20530;-70
2021/08/08 08:14:50;;;;;;;3.13;1.57;;;18.70;99.90;;;;;;4975389;28;22246;-72
2021/08/08 08:17:21;;;;;;;1.93;1.30;;;18.70;99.90;;;;;;4975076;28;20595;-74
2021/08/08 08:19:48;;;;;;;3.60;1.97;;;18.60;99.90;;;;;;4972759;28;20458;-71
2021/08/08 08:22:16;;;;;;;2.03;1.83;;;18.50;99.90;;;;;;4972598;28;20568;-69
2021/08/08 08:24:43;;;;;;;9.10;2.53;;;18.50;99.90;;;;;;4966760;28;20455;-69
2021/08/08 08:27:10;;;;;;;2.03;1.83;;;18.70;99.90;;;;;;4972365;28;20522;-72
2021/08/08 08:29:38;;;;;;;5.33;2.03;;;18.90;99.90;;;;;;4971999;28;20584;-69
2021/08/08 08:32:05;;;;;;;3.50;2.40;;;19.00;99.90;;;;;;4975287;28;21005;-70
2021/08/08 08:34:34;;;;;;;3.53;1.87;;;19.80;99.90;;;;;;4968022;28;20541;-74
2021/08/08 08:37:01;;;;;;;4.30;1.70;;;21.10;99.90;;;;;;4974110;28;20572;-70
2021/08/08 08:39:28;;;;;;;5.50;1.60;;;21.70;99.90;;;;;;4971746;28;20553;-71
2021/08/08 08:41:59;;;;;;;4.90;2.67;;;22.50;99.90;;;;;;4970603;28;20497;-71
2021/08/08 08:44:27;;;;;;;4.23;1.87;;;22.90;99.90;;;;;;4970440;28;20474;-70
2021/08/08 08:46:56;;;;;;;4.37;1.50;;;22.60;99.90;;;;;;4978670;28;20575;-70
2021/08/08 08:49:28;;;;;;;3.63;2.10;;;23.10;99.90;;;;;;4975959;28;20968;-70
2021/08/08 08:52:03;;;;;;;10.30;2.30;;;22.70;99.90;;;;;;4985386;28;20463;-69
2021/08/08 08:54:30;;;;;;;2.90;1.67;;;22.70;99.90;;;;;;4976447;28;20548;-74
2021/08/08 08:56:57;;;;;;;3.67;2.23;;;22.50;99.90;;;;;;4970671;28;20474;-70
2021/08/08 08:59:25;;;;;;;2.20;1.67;;;22.50;99.90;;;;;;4976824;28;20947;-72
2021/08/08 09:01:52;;;;;;;2.60;2.00;;;22.30;99.90;;;;;;4975865;28;20474;-69
2021/08/08 09:04:19;;;;;;;4.33;1.97;;;21.80;99.90;;;;;;4978239;28;20990;-68
2021/08/08 09:06:46;;;;;;;2.97;1.77;;;21.50;99.90;;;;;;4983848;28;20579;-73
2021/08/08 09:09:15;;;;;;;4.10;1.90;;;21.20;99.90;;;;;;4977158;28;20927;-76
2021/08/08 09:11:44;;;;;;;3.23;1.73;;;21.20;99.90;;;;;;4984943;28;20533;-73
2021/08/08 09:14:13;;;;;;;6.90;1.80;;;21.20;99.90;;;;;;4972765;28;22220;-71
2021/08/08 09:16:41;;;;;;;3.67;1.20;;;21.20;99.90;;;;;;4972415;28;20511;-69
2021/08/08 09:19:17;;;;;;;3.17;1.90;;;21.20;99.90;;;;;;4978220;28;20605;-71
2021/08/08 09:21:45;;;;;;;2.07;1.73;;;21.50;99.90;;;;;;4976679;28;20462;-71
2021/08/08 09:24:25;;;;;;;5.10;1.70;;;21.70;99.90;;;;;;4969961;28;20555;-72
2021/08/08 09:27:01;;;;;;;3.13;1.93;;;21.90;99.90;;;;;;4981284;28;20488;-68
2021/08/08 09:29:28;;;;;;;4.33;1.30;;;22.10;99.90;;;;;;4974357;28;20493;-69
2021/08/08 09:31:56;;;;;;;5.20;2.70;;;21.60;99.90;;;;;;4980917;28;20470;-70
2021/08/08 09:34:25;;;;;;;3.30;2.73;;;21.70;99.90;;;;;;4975776;28;20954;-69
2021/08/08 09:36:53;;;;;;;4.70;1.73;;;22.40;99.90;;;;;;4977101;28;21088;-70
2021/08/08 09:39:32;;;;;;;7.87;2.30;;;23.10;99.90;;;;;;4974326;28;20545;-76
2021/08/08 09:42:21;;;;;;;1.90;1.20;;;23.50;99.90;;;;;;4978591;28;20466;-77
2021/08/08 09:44:53;;;;;;;3.27;1.40;;;24.30;99.90;;;;;;4971529;28;20454;-70
2021/08/08 09:47:21;;;;;;;7.30;1.93;;;24.50;99.90;;;;;;4974171;28;20481;-72
2021/08/08 09:50:04;;;;;;;5.57;1.77;;;24.10;99.90;;;;;;4981183;28;20489;-67
2021/08/08 09:52:31;;;;;;;3.03;2.03;;;23.90;99.90;;;;;;4985122;28;20466;-68
2021/08/08 09:54:59;;;;;;;2.90;1.90;;;24.40;99.90;;;;;;4982466;28;20494;-72
2021/08/08 09:57:26;;;;;;;3.50;1.80;;;24.30;99.90;;;;;;4975768;28;20901;-71
2021/08/08 09:59:53;;;;;;;5.03;2.10;;;22.90;99.90;;;;;;4979060;28;20553;-74
2021/08/08 10:02:22;;;;;;;2.87;2.10;;;22.30;99.90;;;;;;4976903;28;20471;-69
2021/08/08 10:04:50;;;;;;;3.10;1.83;;;22.20;99.90;;;;;;4969156;28;20574;-69
2021/08/08 10:07:18;;;;;;;7.17;2.13;;;22.50;99.90;;;;;;4975865;28;20486;-69
2021/08/08 10:09:45;;;;;;;3.23;1.87;;;23.90;99.90;;;;;;4972508;28;20476;-69
2021/08/08 10:12:27;;;;;;;6.63;1.70;;;23.80;99.90;;;;;;4979552;28;20466;-70
2021/08/08 10:14:57;;;;;;;4.30;1.77;;;23.20;99.90;;;;;;4977077;28;20466;-71
2021/08/08 10:17:26;;;;;;;2.90;1.57;;;23.00;99.90;;;;;;4978192;28;20861;-71
2021/08/08 10:19:55;;;;;;;3.03;1.60;;;22.60;99.90;;;;;;4979479;28;20457;-73
2021/08/08 10:22:24;;;;;;;2.97;1.57;;;22.20;99.90;;;;;;4973794;28;20451;-71
2021/08/08 10:24:55;;;;;;;6.87;2.00;;;22.20;99.90;;;;;;4968332;28;20565;-71
2021/08/08 10:27:25;;;;;;;3.70;2.50;;;22.10;99.90;;;;;;4972382;28;20536;-76
2021/08/08 10:29:55;;;;;;;2.27;1.90;;;22.10;99.90;;;;;;4976489;28;20531;-69
2021/08/08 10:32:25;;;;;;;5.63;2.17;;;22.10;99.90;;;;;;4978539;28;20529;-70
2021/08/08 10:34:53;;;;;;;5.20;2.20;;;21.90;99.90;;;;;;4983192;28;20537;-70
2021/08/08 10:37:23;;;;;;;3.57;1.93;;;22.00;99.90;;;;;;4980280;28;20510;-70
2021/08/08 10:39:51;;;;;;;3.73;1.60;;;22.10;99.90;;;;;;4972396;28;20545;-70
2021/08/08 10:42:19;;;;;;;3.43;2.00;;;22.00;99.90;;;;;;4979484;28;20561;-71
2021/08/08 10:44:49;;;;;;;3.37;2.17;;;22.10;99.90;;;;;;4984825;28;20538;-71
2021/08/08 10:47:29;;;;;;;4.77;1.50;;;21.70;99.90;;;;;;4980165;28;20608;-70
2021/08/08 10:50:07;;;;;;;4.10;2.30;;;21.50;99.90;;;;;;4982248;28;20489;-73
2021/08/08 10:52:40;;;;;;;6.33;1.60;;;22.10;99.90;;;;;;4979010;28;21006;-71
2021/08/08 10:55:07;;;;;;;4.53;1.97;;;22.90;99.90;;;;;;4968933;28;20474;-76
2021/08/08 10:57:42;;;;;;;11.27;1.97;;;22.90;99.90;;;;;;4976387;28;20518;-76
2021/08/08 11:00:15;;;;;;;2.87;1.67;;;22.80;99.90;;;;;;4971062;28;20461;-71
2021/08/08 11:02:44;;;;;;;3.37;2.67;;;22.60;99.90;;;;;;4992506;28;20484;-73
2021/08/08 11:05:16;;;;;;;4.60;1.90;;;22.50;99.90;;;;;;4977938;28;20931;-74
2021/08/08 11:07:45;;;;;;;4.17;1.70;;;22.40;99.90;;;;;;4979722;28;21025;-71
2021/08/08 11:10:13;;;;;;;4.77;1.97;;;22.20;99.90;;;;;;4973409;28;20588;-71
2021/08/08 11:12:42;;;;;;;6.10;2.13;;;22.20;99.90;;;;;;4975185;28;20524;-70
2021/08/08 11:15:10;;;;;;;8.40;2.00;;;21.90;99.90;;;;;;4982735;28;20491;-71
2021/08/08 11:17:42;;;;;;;4.60;1.73;;;21.70;99.90;;;;;;4967484;28;20490;-72
2021/08/08 11:20:10;;;;;;;2.93;2.13;;;22.20;99.90;;;;;;4965328;28;20461;-73
2021/08/08 11:22:38;;;;;;;3.50;1.57;;;23.00;99.90;;;;;;4974361;28;20466;-72
2021/08/08 11:25:08;;;;;;;4.47;1.97;;;24.00;99.90;;;;;;4988932;28;20465;-71
2021/08/08 11:27:37;;;;;;;2.70;1.60;;;25.40;99.90;;;;;;4986968;28;20990;-75
2021/08/08 11:30:05;;;;;;;3.10;2.17;;;25.70;99.90;;;;;;4990478;28;20482;-73
2021/08/08 11:32:34;;;;;;;3.93;1.90;;;25.00;99.90;;;;;;4990057;28;20517;-72
2021/08/08 11:35:04;;;;;;;3.67;1.80;;;24.50;99.90;;;;;;4986822;28;20521;-72
2021/08/08 11:37:34;;;;;;;5.60;1.53;;;24.40;99.90;;;;;;4987638;28;20528;-70
2021/08/08 11:40:01;;;;;;;2.07;1.20;;;24.80;99.90;;;;;;4987549;28;20466;-72
2021/08/08 11:42:33;;;;;;;5.77;1.97;;;24.80;99.90;;;;;;4991150;28;20446;-73
2021/08/08 11:45:00;;;;;;;4.70;1.73;;;24.00;99.90;;;;;;4989628;28;20490;-70
2021/08/08 11:47:28;;;;;;;3.30;2.00;;;23.30;99.90;;;;;;4990072;28;20908;-71
2021/08/08 11:49:55;;;;;;;5.33;2.23;;;23.20;99.90;;;;;;4989245;28;20544;-73
2021/08/08 11:52:24;;;;;;;2.50;1.13;;;23.00;99.90;;;;;;4990780;28;20504;-70
2021/08/08 11:55:01;;;;;;;2.60;1.70;;;23.50;99.90;;;;;;4989487;28;20463;-74
2021/08/08 11:57:29;;;;;;;5.00;1.67;;;24.00;99.90;;;;;;4987416;28;20554;-73
2021/08/08 11:59:57;;;;;;;2.40;1.97;;;23.70;99.90;;;;;;4989285;28;20927;-71
2021/08/08 12:02:25;;;;;;;2.73;1.30;;;23.20;99.90;;;;;;4990929;28;20458;-73
2021/08/08 12:04:53;;;;;;;3.90;2.30;;;22.80;99.90;;;;;;4987839;28;20450;-71
2021/08/08 12:07:24;;;;;;;2.63;1.47;;;22.60;99.90;;;;;;4985469;28;20483;-70
2021/08/08 12:09:52;;;;;;;5.60;1.63;;;22.40;99.90;;;;;;4983051;28;21022;-72
2021/08/08 12:12:20;;;;;;;3.67;2.00;;;22.50;99.90;;;;;;4990622;28;20466;-70
2021/08/08 12:14:56;;;;;;;2.17;1.70;;;22.40;99.90;;;;;;4990661;28;20509;-72
2021/08/08 12:17:24;;;;;;;2.50;1.67;;;22.40;99.90;;;;;;4976630;28;20481;-71
2021/08/08 12:19:54;;;;;;;3.03;1.60;;;22.20;99.90;;;;;;4976914;28;20465;-71
2021/08/08 12:22:24;;;;;;;2.43;1.70;;;21.80;99.90;;;;;;4977322;28;20470;-70
2021/08/08 12:25:01;;;;;;;2.80;1.33;;;21.80;99.90;;;;;;4976725;28;20537;-72
2021/08/08 12:27:31;;;;;;;3.67;1.40;;;21.90;99.90;;;;;;4974667;28;20997;-74
2021/08/08 12:29:59;;;;;;;4.57;1.90;;;21.80;99.90;;;;;;4975362;28;20574;-69
2021/08/08 12:32:32;;;;;;;4.73;1.70;;;21.90;99.90;;;;;;4977162;28;20548;-70
2021/08/08 12:35:07;;;;;;;3.87;1.90;;;22.10;99.90;;;;;;4979915;28;20481;-71
2021/08/08 12:37:35;;;;;;;4.90;2.10;;;21.70;99.90;;;;;;4983869;28;20532;-71
2021/08/08 12:40:10;;;;;;;6.63;1.53;;;21.70;99.90;;;;;;4965615;28;20459;-70
2021/08/08 12:42:38;;;;;;;8.70;2.03;;;21.80;99.90;;;;;;4974327;28;20448;-72
2021/08/08 12:45:08;;;;;;;2.33;1.47;;;21.90;99.90;;;;;;4974392;28;20471;-70
2021/08/08 12:47:36;;;;;;;1.53;1.00;;;22.00;99.90;;;;;;4981365;28;20482;-77
2021/08/08 12:50:14;;;;;;;3.33;1.83;;;22.10;99.90;;;;;;4982188;28;20489;-72